aviador You're here:

CYDF Decoded Metar

DEER LAKE in NL, CANADA
Report Time2017-08-22 10:00:00
UTC Time2017-08-22 11:06:37
Flight Rules vfr VFR
Wind250° at 04 kt
W.Decomp.*RWY 25: 3.7 kt HW 1.5 kt RCW
W.Rank250° ranks 5
Current wind is below 250° avg. (9.2)
Visibility9999 m
Phenomena:N/A
Clouds:Few 025 Hf
Scattered 090 Hf
Broken 220 Hf
Expected CloudBase > 400 ft AGL from Temp-Dew spread
Ceiling22,000 ft
Temp18°C (ISA +3)
Dew Point17°C (94% RH)
QNH1009 hPa
Density Alt833 ft
Elevation72 ft
Report Wrong Elevation
Raw Report
CYDF 221000Z 25004KT 220V280 15SM FEW025 SCT090 BKN220 18/17 A2980
RMK SC1AC2CI2 SLP092 DENSITY ALT 600FT=

Extra information for CYDF:More info

Metar Taf Metar & Taf Last 4 Metars F.Rules Stats Wind Profile Meteogram Temp Stats Airport Information Weather charts Add Link Nearby VenuesMetar ALERT Operation Metar Decoded Social comments